createdAt,value
2022-08-21T00:01:43.138Z,2.45
2022-08-21T00:04:32.898Z,2.35
2022-08-21T00:07:22.516Z,2.47
2022-08-21T00:10:13.350Z,2.55
2022-08-21T00:13:04.689Z,2.20
2022-08-21T00:15:52.281Z,2.58
2022-08-21T00:18:39.514Z,2.55
2022-08-21T00:21:29.596Z,2.70
2022-08-21T00:24:19.146Z,2.60
2022-08-21T00:27:07.541Z,2.58
2022-08-21T00:29:55.028Z,2.80
2022-08-21T00:32:42.660Z,2.72
2022-08-21T00:35:37.906Z,2.70
2022-08-21T00:38:27.631Z,2.25
2022-08-21T00:41:37.748Z,2.80
2022-08-21T00:44:22.272Z,2.58
2022-08-21T00:47:10.494Z,2.63
2022-08-21T00:49:57.634Z,2.90
2022-08-21T00:52:46.154Z,2.85
2022-08-21T00:55:37.263Z,2.90
2022-08-21T00:58:28.650Z,2.55
2022-08-21T01:01:19.222Z,2.90
2022-08-21T01:04:09.264Z,2.85
2022-08-21T01:06:59.512Z,2.67
2022-08-21T01:09:48.673Z,2.67
2022-08-21T01:12:37.124Z,2.72
2022-08-21T01:15:28.128Z,2.70
2022-08-21T01:18:19.654Z,2.58
2022-08-21T01:21:19.485Z,2.90
2022-08-21T01:24:06.994Z,3.10
2022-08-21T01:26:56.786Z,2.95
2022-08-21T01:29:53.433Z,3.13
2022-08-21T01:32:43.571Z,2.92
2022-08-21T01:35:30.802Z,2.92
2022-08-21T01:38:18.813Z,2.67
2022-08-21T01:41:06.125Z,3.45
2022-08-21T01:43:53.197Z,3.05
2022-08-21T01:46:40.512Z,2.90
2022-08-21T01:49:27.782Z,2.80
2022-08-21T01:52:15.033Z,3.30
2022-08-21T01:55:02.376Z,3.20
2022-08-21T01:57:49.969Z,3.72
2022-08-21T02:00:37.160Z,3.42
2022-08-21T02:03:26.305Z,3.20
2022-08-21T02:06:22.968Z,3.15
2022-08-21T02:09:22.688Z,3.20
2022-08-21T02:12:12.325Z,2.95
2022-08-21T02:14:59.803Z,3.50
2022-08-21T02:17:54.940Z,3.67
2022-08-21T02:20:45.776Z,3.42
2022-08-21T02:23:34.236Z,4.32
2022-08-21T02:26:21.354Z,4.35
2022-08-21T02:29:11.272Z,3.70
2022-08-21T02:31:59.508Z,3.90
2022-08-21T02:34:47.804Z,2.95
2022-08-21T02:37:54.023Z,3.72
2022-08-21T02:40:48.076Z,3.97
2022-08-21T02:43:38.150Z,3.45
2022-08-21T02:46:25.361Z,3.55
2022-08-21T02:49:12.464Z,3.47
2022-08-21T02:52:00.567Z,3.60
2022-08-21T02:54:49.896Z,4.13
2022-08-21T02:57:39.169Z,3.65
2022-08-21T03:00:31.261Z,3.80
2022-08-21T03:03:22.463Z,4.13
2022-08-21T03:06:16.514Z,3.95
2022-08-21T03:09:05.845Z,3.50
2022-08-21T03:12:05.126Z,4.13
2022-08-21T03:14:57.372Z,4.07
2022-08-21T03:17:45.858Z,4.32
2022-08-21T03:21:51.772Z,4.13
2022-08-21T03:25:06.360Z,4.32
2022-08-21T03:27:29.833Z,4.55
2022-08-21T03:30:31.583Z,4.68
2022-08-21T03:33:29.112Z,3.90
2022-08-21T03:36:27.142Z,4.72
2022-08-21T03:39:18.387Z,4.43
2022-08-21T03:42:15.655Z,4.85
2022-08-21T03:45:03.754Z,4.28
2022-08-21T03:47:56.816Z,4.68
2022-08-21T03:50:48.255Z,4.60
2022-08-21T03:53:38.183Z,4.45
2022-08-21T03:56:25.486Z,4.20
2022-08-21T03:59:17.679Z,5.50
2022-08-21T04:02:07.895Z,5.80
2022-08-21T04:04:57.389Z,5.10
2022-08-21T04:07:47.018Z,5.85
2022-08-21T04:10:36.660Z,7.65
2022-08-21T04:13:24.022Z,6.82
2022-08-21T04:16:11.256Z,6.03
2022-08-21T04:19:00.734Z,6.40
2022-08-21T04:21:47.934Z,6.80
2022-08-21T04:24:36.638Z,6.80
2022-08-21T04:27:23.752Z,6.75
2022-08-21T04:30:17.671Z,6.93
2022-08-21T04:33:05.043Z,6.40
2022-08-21T04:35:53.644Z,6.43
2022-08-21T04:38:44.535Z,6.85
2022-08-21T04:41:32.206Z,6.28
2022-08-21T04:44:19.432Z,6.45
2022-08-21T04:47:09.779Z,8.00
2022-08-21T04:49:57.227Z,7.30
2022-08-21T04:52:45.306Z,7.43
2022-08-21T04:55:32.542Z,7.57
2022-08-21T04:58:27.369Z,7.05
2022-08-21T05:01:18.396Z,7.18
2022-08-21T05:04:09.567Z,6.88
2022-08-21T05:07:01.321Z,6.68
2022-08-21T05:09:49.265Z,6.97
2022-08-21T05:12:36.715Z,6.50
2022-08-21T05:15:24.231Z,6.57
2022-08-21T05:18:11.991Z,6.18
2022-08-21T05:20:59.282Z,6.57
2022-08-21T05:23:46.555Z,5.90
2022-08-21T05:26:34.272Z,6.15
2022-08-21T05:29:32.777Z,5.05
2022-08-21T05:32:19.963Z,5.20
2022-08-21T05:35:08.666Z,5.35
2022-08-21T05:37:57.253Z,4.50
2022-08-21T05:40:47.478Z,4.75
2022-08-21T05:43:37.473Z,4.13
2022-08-21T05:46:24.753Z,4.63
2022-08-21T05:49:12.614Z,4.00
2022-08-21T05:52:04.989Z,3.80
2022-08-21T05:54:54.862Z,3.83
2022-08-21T05:57:42.297Z,4.38
2022-08-21T06:00:32.619Z,4.22
2022-08-21T06:03:23.392Z,4.05
2022-08-21T06:06:10.922Z,3.90
2022-08-21T06:08:58.424Z,3.60
2022-08-21T06:11:45.589Z,3.80
2022-08-21T06:14:33.336Z,3.67
2022-08-21T06:17:20.892Z,3.80
2022-08-21T06:20:08.654Z,4.05
2022-08-21T06:22:55.859Z,3.38
2022-08-21T06:25:50.601Z,3.80
2022-08-21T06:28:38.003Z,3.63
2022-08-21T06:31:28.429Z,3.40
2022-08-21T06:34:16.497Z,3.10
2022-08-21T06:37:04.163Z,3.00
2022-08-21T06:39:51.334Z,2.97
2022-08-21T06:42:40.083Z,3.13
2022-08-21T06:45:32.248Z,3.30
2022-08-21T06:48:21.291Z,3.03
2022-08-21T06:51:10.936Z,2.75
2022-08-21T06:53:59.469Z,3.45
2022-08-21T06:56:47.424Z,3.35
2022-08-21T06:59:34.782Z,2.45
2022-08-21T07:02:24.474Z,2.50
2022-08-21T07:05:18.159Z,2.80
2022-08-21T07:08:08.115Z,3.17
2022-08-21T07:11:00.648Z,2.47
2022-08-21T07:13:53.624Z,2.63
2022-08-21T07:16:43.168Z,2.42
2022-08-21T07:19:30.530Z,2.38
2022-08-21T07:22:20.388Z,2.75
2022-08-21T07:25:08.356Z,2.65
2022-08-21T07:27:56.269Z,2.38
2022-08-21T07:30:43.682Z,2.38
2022-08-21T07:33:34.948Z,2.65
2022-08-21T07:36:22.275Z,2.33
2022-08-21T07:39:09.486Z,2.88
2022-08-21T07:41:58.851Z,2.42
2022-08-21T07:44:46.002Z,2.40
2022-08-21T07:47:42.104Z,2.90
2022-08-21T07:50:35.546Z,2.28
2022-08-21T07:53:23.004Z,3.13
2022-08-21T07:56:13.065Z,2.40
2022-08-21T07:59:00.191Z,2.78
2022-08-21T08:01:48.060Z,2.85
2022-08-21T08:04:35.183Z,2.70
2022-08-21T08:07:24.559Z,2.50
2022-08-21T08:10:12.686Z,2.67
2022-08-21T08:13:00.249Z,2.92
2022-08-21T08:15:47.569Z,2.70
2022-08-21T08:18:35.270Z,2.20
2022-08-21T08:21:23.260Z,2.70
2022-08-21T08:24:19.270Z,2.70
2022-08-21T08:27:07.031Z,2.55
2022-08-21T08:29:54.280Z,3.00
2022-08-21T08:32:42.370Z,2.55
2022-08-21T08:35:32.548Z,2.88
2022-08-21T08:38:24.500Z,3.10
2022-08-21T08:41:22.376Z,2.90
2022-08-21T08:44:10.161Z,3.83
2022-08-21T08:46:58.522Z,2.85
2022-08-21T08:50:00.303Z,2.90
2022-08-21T08:52:58.947Z,2.80
2022-08-21T08:55:47.051Z,2.83
2022-08-21T08:58:40.439Z,2.42
2022-08-21T09:01:27.967Z,3.58
2022-08-21T09:04:29.637Z,2.63
2022-08-21T09:07:40.586Z,2.80
2022-08-21T09:10:55.185Z,2.65
2022-08-21T09:14:00.626Z,3.08
2022-08-21T09:17:10.707Z,2.85
2022-08-21T09:20:04.982Z,2.67
2022-08-21T09:22:57.893Z,2.97
2022-08-21T09:26:20.990Z,2.67
2022-08-21T09:29:12.048Z,2.83
2022-08-21T09:31:59.539Z,3.15
2022-08-21T09:35:05.327Z,2.83
2022-08-21T09:38:00.501Z,2.45
2022-08-21T09:40:56.551Z,2.38
2022-08-21T09:43:56.023Z,2.47
2022-08-21T09:46:52.242Z,2.58
2022-08-21T09:49:42.118Z,2.50
2022-08-21T09:52:29.384Z,2.53
2022-08-21T09:55:42.652Z,2.22
2022-08-21T09:58:36.612Z,2.90
2022-08-21T10:01:26.351Z,2.17
2022-08-21T10:04:21.778Z,2.80
2022-08-21T10:07:15.558Z,2.83
2022-08-21T10:10:23.002Z,2.92
2022-08-21T10:13:45.642Z,2.78
2022-08-21T10:19:50.514Z,2.38
2022-08-21T10:22:40.524Z,2.42
2022-08-21T10:25:32.957Z,2.10
2022-08-21T10:28:38.174Z,2.55
2022-08-21T10:31:25.291Z,2.40
2022-08-21T10:34:21.459Z,2.47
2022-08-21T10:37:22.558Z,2.25
2022-08-21T10:40:32.916Z,2.40
2022-08-21T10:43:31.958Z,2.35
2022-08-21T10:46:40.958Z,2.70
2022-08-21T10:49:37.007Z,2.20
2022-08-21T10:52:37.762Z,2.35
2022-08-21T10:55:49.249Z,2.53
2022-08-21T10:59:12.720Z,2.40
2022-08-21T11:02:04.789Z,2.17
2022-08-21T11:05:11.743Z,2.25
2022-08-21T11:08:23.262Z,2.25
2022-08-21T11:11:21.622Z,2.30
2022-08-21T11:14:28.229Z,2.00
2022-08-21T11:17:23.192Z,1.95
2022-08-21T11:20:28.940Z,2.17
2022-08-21T11:23:26.124Z,2.10
2022-08-21T11:26:23.128Z,2.30
2022-08-21T11:29:28.434Z,2.30
2022-08-21T11:32:40.312Z,2.42
2022-08-21T11:35:34.896Z,2.17
2022-08-21T11:38:29.054Z,1.77
2022-08-21T11:41:44.136Z,1.90
2022-08-21T11:44:46.265Z,2.03
2022-08-21T11:47:57.438Z,2.50
2022-08-21T11:50:46.980Z,1.95
2022-08-21T11:53:54.212Z,2.15
2022-08-21T11:57:05.087Z,2.25
2022-08-21T12:00:05.321Z,1.80
2022-08-21T12:03:00.346Z,2.35
2022-08-21T12:05:56.976Z,2.05
2022-08-21T12:08:46.915Z,2.35
2022-08-21T12:11:48.077Z,2.25
2022-08-21T12:14:46.186Z,3.30
2022-08-21T12:17:41.294Z,2.70
2022-08-21T12:20:50.344Z,2.20
2022-08-21T12:24:00.123Z,2.10
2022-08-21T12:27:13.562Z,2.13
2022-08-21T12:30:10.559Z,1.83
2022-08-21T12:33:33.822Z,2.22
2022-08-21T12:36:26.872Z,2.25
2022-08-21T12:39:20.609Z,2.20
2022-08-21T12:42:20.653Z,2.30
2022-08-21T12:45:27.996Z,2.38
2022-08-21T12:48:36.966Z,2.38
2022-08-21T12:51:25.915Z,2.60
2022-08-21T12:54:33.410Z,2.55
2022-08-21T12:57:26.893Z,1.80
2022-08-21T13:00:23.352Z,2.40
2022-08-21T13:03:15.927Z,2.42
2022-08-21T13:06:05.745Z,2.28
2022-08-21T13:09:00.693Z,1.88
2022-08-21T13:11:49.965Z,2.17
2022-08-21T13:15:08.955Z,2.10
2022-08-21T13:18:02.738Z,2.33
2022-08-21T13:20:53.420Z,2.50
2022-08-21T13:23:41.075Z,2.08
2022-08-21T13:26:28.259Z,2.10
2022-08-21T13:29:18.784Z,2.25
2022-08-21T13:32:22.462Z,2.30
2022-08-21T13:35:22.393Z,2.30
2022-08-21T13:38:09.646Z,2.13
2022-08-21T13:41:05.469Z,2.55
2022-08-21T13:44:00.565Z,2.67
2022-08-21T13:46:49.319Z,2.22
2022-08-21T13:49:46.370Z,2.35
2022-08-21T13:52:33.478Z,2.55
2022-08-21T13:55:20.692Z,2.40
2022-08-21T13:58:09.463Z,2.28
2022-08-21T14:00:58.838Z,2.55
2022-08-21T14:03:48.325Z,2.75
2022-08-21T14:06:38.602Z,2.42
2022-08-21T14:09:35.251Z,2.97
2022-08-21T14:12:55.577Z,2.47
2022-08-21T14:15:42.744Z,2.47
2022-08-21T14:18:30.483Z,2.53
2022-08-21T14:21:29.636Z,2.22
2022-08-21T14:24:29.922Z,2.25
2022-08-21T14:27:20.346Z,2.50
2022-08-21T14:30:20.015Z,2.20
2022-08-21T14:33:19.962Z,2.25
2022-08-21T14:36:07.464Z,2.60
2022-08-21T14:38:54.668Z,2.22
2022-08-21T14:41:43.686Z,1.85
2022-08-21T14:44:31.062Z,2.30
2022-08-21T14:47:25.759Z,2.40
2022-08-21T14:50:16.711Z,2.08
2022-08-21T14:53:11.151Z,2.20
2022-08-21T14:56:07.915Z,2.25
2022-08-21T14:59:06.946Z,2.28
2022-08-21T15:01:57.273Z,1.98
2022-08-21T15:04:44.636Z,2.13
2022-08-21T15:07:31.842Z,1.80
2022-08-21T15:10:19.084Z,2.20
2022-08-21T15:13:07.247Z,2.55
2022-08-21T15:15:57.173Z,2.38
2022-08-21T15:18:44.656Z,2.53
2022-08-21T15:21:34.006Z,2.40
2022-08-21T15:24:21.191Z,2.60
2022-08-21T15:27:11.255Z,2.60
2022-08-21T15:29:58.448Z,2.47
2022-08-21T15:32:48.063Z,2.67
2022-08-21T15:35:36.206Z,2.65
2022-08-21T15:38:28.370Z,2.08
2022-08-21T15:41:15.863Z,2.38
2022-08-21T15:44:05.808Z,2.22
2022-08-21T15:46:53.195Z,2.25
2022-08-21T15:49:45.346Z,2.60
2022-08-21T15:55:20.038Z,2.25
2022-08-21T15:58:14.172Z,2.20
2022-08-21T16:01:02.595Z,2.95
2022-08-21T16:03:53.365Z,2.63
2022-08-21T16:06:53.279Z,2.58
2022-08-21T16:09:44.409Z,2.50
2022-08-21T16:12:35.821Z,2.78
2022-08-21T16:15:23.444Z,2.83
2022-08-21T16:18:11.377Z,2.70
2022-08-21T16:21:04.547Z,2.50
2022-08-21T16:23:52.066Z,2.67
2022-08-21T16:26:39.502Z,2.60
2022-08-21T16:29:33.481Z,2.78
2022-08-21T16:32:21.759Z,2.35
2022-08-21T16:35:15.544Z,2.58
2022-08-21T16:38:03.200Z,2.63
2022-08-21T16:40:50.881Z,2.65
2022-08-21T16:43:42.778Z,2.95
2022-08-21T16:46:33.267Z,2.38
2022-08-21T16:49:20.650Z,2.25
2022-08-21T16:52:07.973Z,3.35
2022-08-21T16:54:56.637Z,2.53
2022-08-21T16:57:44.582Z,2.70
2022-08-21T17:00:31.902Z,2.58
2022-08-21T17:03:21.862Z,2.78
2022-08-21T17:06:10.190Z,2.55
2022-08-21T17:08:58.768Z,2.53
2022-08-21T17:11:50.099Z,2.80
2022-08-21T17:14:37.780Z,2.55
2022-08-21T17:17:24.925Z,2.70
2022-08-21T17:20:12.350Z,3.08
2022-08-21T17:22:59.931Z,2.75
2022-08-21T17:25:50.929Z,2.58
2022-08-21T17:28:38.781Z,2.63
2022-08-21T17:31:25.992Z,2.70
2022-08-21T17:34:19.672Z,2.60
2022-08-21T17:37:09.800Z,2.63
2022-08-21T17:39:57.722Z,2.83
2022-08-21T17:42:47.705Z,2.58
2022-08-21T17:45:37.451Z,2.72
2022-08-21T17:48:25.536Z,2.58
2022-08-21T17:51:15.679Z,2.75
2022-08-21T17:54:02.891Z,2.50
2022-08-21T17:56:50.394Z,2.47
2022-08-21T17:59:38.236Z,2.47
2022-08-21T18:02:25.496Z,2.78
2022-08-21T18:05:14.463Z,2.97
2022-08-21T18:08:02.304Z,3.15
2022-08-21T18:10:51.062Z,2.70
2022-08-21T18:13:40.305Z,3.00
2022-08-21T18:16:33.567Z,3.28
2022-08-21T18:19:25.209Z,2.83
2022-08-21T18:22:12.528Z,2.80
2022-08-21T18:25:00.593Z,2.85
2022-08-21T18:27:50.603Z,2.80
2022-08-21T18:30:40.691Z,3.60
2022-08-21T18:33:30.470Z,3.05
2022-08-21T18:36:17.724Z,2.90
2022-08-21T18:39:34.433Z,2.65
2022-08-21T18:42:17.351Z,3.22
2022-08-21T18:45:10.353Z,2.83
2022-08-21T18:47:58.379Z,3.30
2022-08-21T18:53:57.075Z,3.33
2022-08-21T18:56:45.023Z,2.90
2022-08-21T18:59:33.587Z,2.88
2022-08-21T19:02:21.001Z,3.42
2022-08-21T19:05:10.891Z,2.97
2022-08-21T19:07:58.742Z,3.08
2022-08-21T19:10:49.961Z,2.65
2022-08-21T19:13:38.580Z,2.58
2022-08-21T19:16:30.067Z,3.00
2022-08-21T19:19:18.560Z,3.40
2022-08-21T19:22:05.963Z,2.60
2022-08-21T19:24:58.176Z,3.05
2022-08-21T19:27:45.583Z,3.60
2022-08-21T19:30:33.119Z,4.18
2022-08-21T19:33:30.796Z,4.40
2022-08-21T19:36:21.440Z,4.15
2022-08-21T19:39:11.198Z,5.05
2022-08-21T19:42:02.843Z,3.97
2022-08-21T19:48:02.657Z,3.88
2022-08-21T19:53:40.052Z,3.88
2022-08-21T19:56:30.978Z,4.05
2022-08-21T19:59:24.659Z,4.07
2022-08-21T20:02:14.249Z,3.53
2022-08-21T20:05:02.052Z,3.75
2022-08-21T20:07:49.184Z,4.32
2022-08-21T20:10:44.424Z,4.22
2022-08-21T20:13:33.954Z,4.07
2022-08-21T20:16:21.640Z,3.75
2022-08-21T20:19:09.303Z,3.55
2022-08-21T20:21:58.359Z,4.35
2022-08-21T20:24:46.667Z,4.22
2022-08-21T20:27:40.575Z,4.10
2022-08-21T20:30:28.580Z,4.32
2022-08-21T20:33:18.850Z,4.00
2022-08-21T20:36:11.471Z,4.03
2022-08-21T20:38:58.695Z,4.40
2022-08-21T20:41:47.713Z,3.60
2022-08-21T20:44:36.936Z,4.90
2022-08-21T20:47:24.104Z,3.85
2022-08-21T20:50:21.723Z,3.78
2022-08-21T20:53:43.229Z,3.75
2022-08-21T20:56:38.250Z,2.92
2022-08-21T20:59:34.694Z,3.60
2022-08-21T21:02:46.154Z,4.30
2022-08-21T21:05:55.804Z,3.30
2022-08-21T21:09:14.588Z,3.88
2022-08-21T21:12:05.040Z,3.78
2022-08-21T21:14:55.514Z,3.47
2022-08-21T21:17:50.414Z,4.85
2022-08-21T21:20:53.984Z,3.55
2022-08-21T21:23:48.629Z,3.72
2022-08-21T21:26:59.843Z,3.42
2022-08-21T21:29:56.217Z,3.30
2022-08-21T21:32:43.931Z,3.58
2022-08-21T21:35:48.975Z,3.65
2022-08-21T21:38:51.648Z,3.45
2022-08-21T21:42:00.763Z,3.78
2022-08-21T21:44:50.951Z,3.65
2022-08-21T21:47:43.913Z,3.63
2022-08-21T21:50:33.862Z,3.17
2022-08-21T21:54:00.241Z,3.10
2022-08-21T21:56:55.085Z,3.13
2022-08-21T22:00:06.696Z,3.35
2022-08-21T22:03:14.712Z,3.30
2022-08-21T22:06:24.201Z,3.58
2022-08-21T22:09:33.015Z,3.70
2022-08-21T22:12:53.827Z,4.38
2022-08-21T22:15:41.747Z,3.80
2022-08-21T22:18:35.708Z,4.05
2022-08-21T22:21:34.436Z,3.90
2022-08-21T22:24:35.633Z,3.33
2022-08-21T22:27:29.253Z,3.67
2022-08-21T22:30:41.086Z,3.65
2022-08-21T22:33:32.163Z,3.17
2022-08-21T22:36:20.970Z,3.15
2022-08-21T22:39:16.881Z,3.03
2022-08-21T22:42:11.339Z,3.15
2022-08-21T22:45:02.552Z,3.53
2022-08-21T22:47:52.666Z,3.50
2022-08-21T22:50:40.638Z,3.13
2022-08-21T22:53:30.403Z,3.08
2022-08-21T22:56:33.955Z,3.67
2022-08-21T22:59:29.397Z,3.97
2022-08-21T23:02:52.246Z,3.97
2022-08-21T23:05:39.711Z,3.40
2022-08-21T23:08:36.121Z,3.33
2022-08-21T23:11:53.134Z,3.60
2022-08-21T23:14:43.785Z,3.90
2022-08-21T23:17:53.587Z,3.30
2022-08-21T23:21:01.487Z,3.00
2022-08-21T23:24:19.713Z,2.72
2022-08-21T23:27:56.808Z,3.35
2022-08-21T23:31:05.561Z,3.28
2022-08-21T23:34:19.659Z,4.22
2022-08-21T23:37:51.588Z,3.45
2022-08-21T23:40:51.631Z,3.70
2022-08-21T23:43:42.983Z,3.50
2022-08-21T23:47:00.249Z,3.67
2022-08-21T23:49:49.335Z,3.80
2022-08-21T23:53:15.037Z,3.40
2022-08-21T23:56:14.119Z,3.72
2022-08-21T23:59:13.822Z,4.30
